sensor_id;sensor_type;location;lat;lon;timestamp;P1;durP1;ratioP1;P2;durP2;ratioP2
53203;SDS011;39086;54.424;18.456;2023-06-26T00:00:03;7.60;;;5.70;;
53203;SDS011;39086;54.424;18.456;2023-06-26T00:01:08;7.53;;;5.23;;
53203;SDS011;39086;54.424;18.456;2023-06-26T00:02:10;7.73;;;5.87;;
53203;SDS011;39086;54.424;18.456;2023-06-26T00:03:13;10.43;;;6.10;;
53203;SDS011;39086;54.424;18.456;2023-06-26T00:04:16;11.20;;;6.40;;
53203;SDS011;39086;54.424;18.456;2023-06-26T00:05:19;7.13;;;5.83;;
53203;SDS011;39086;54.424;18.456;2023-06-26T00:06:22;13.20;;;6.33;;
53203;SDS011;39086;54.424;18.456;2023-06-26T00:07:25;7.73;;;6.13;;
53203;SDS011;39086;54.424;18.456;2023-06-26T00:08:30;8.37;;;6.43;;
53203;SDS011;39086;54.424;18.456;2023-06-26T00:09:33;13.33;;;6.80;;
53203;SDS011;39086;54.424;18.456;2023-06-26T00:10:35;12.13;;;6.87;;
53203;SDS011;39086;54.424;18.456;2023-06-26T00:11:40;6.83;;;6.13;;
53203;SDS011;39086;54.424;18.456;2023-06-26T00:12:42;9.60;;;6.53;;
53203;SDS011;39086;54.424;18.456;2023-06-26T00:13:45;10.63;;;6.57;;
53203;SDS011;39086;54.424;18.456;2023-06-26T00:14:48;9.07;;;6.27;;
53203;SDS011;39086;54.424;18.456;2023-06-26T00:15:51;13.13;;;6.53;;
53203;SDS011;39086;54.424;18.456;2023-06-26T00:16:55;9.50;;;6.47;;
53203;SDS011;39086;54.424;18.456;2023-06-26T00:17:57;11.77;;;7.13;;
53203;SDS011;39086;54.424;18.456;2023-06-26T00:19:01;7.13;;;6.37;;
53203;SDS011;39086;54.424;18.456;2023-06-26T00:20:04;11.03;;;7.07;;
53203;SDS011;39086;54.424;18.456;2023-06-26T00:21:08;8.70;;;6.43;;
53203;SDS011;39086;54.424;18.456;2023-06-26T00:22:10;12.57;;;7.10;;
53203;SDS011;39086;54.424;18.456;2023-06-26T00:23:15;8.33;;;7.13;;
53203;SDS011;39086;54.424;18.456;2023-06-26T00:24:19;12.47;;;6.90;;
53203;SDS011;39086;54.424;18.456;2023-06-26T00:25:22;11.90;;;7.33;;
53203;SDS011;39086;54.424;18.456;2023-06-26T00:26:25;11.90;;;6.83;;
53203;SDS011;39086;54.424;18.456;2023-06-26T00:27:28;14.43;;;6.83;;
53203;SDS011;39086;54.424;18.456;2023-06-26T00:28:31;12.03;;;7.13;;
53203;SDS011;39086;54.424;18.456;2023-06-26T00:29:34;10.53;;;7.87;;
53203;SDS011;39086;54.424;18.456;2023-06-26T00:30:37;10.97;;;7.20;;
53203;SDS011;39086;54.424;18.456;2023-06-26T00:31:40;10.83;;;7.13;;
53203;SDS011;39086;54.424;18.456;2023-06-26T00:32:43;10.30;;;6.97;;
53203;SDS011;39086;54.424;18.456;2023-06-26T00:33:46;10.47;;;7.33;;
53203;SDS011;39086;54.424;18.456;2023-06-26T00:34:49;8.83;;;6.97;;
53203;SDS011;39086;54.424;18.456;2023-06-26T00:35:53;9.47;;;7.30;;
53203;SDS011;39086;54.424;18.456;2023-06-26T00:36:56;10.80;;;6.80;;
53203;SDS011;39086;54.424;18.456;2023-06-26T00:37:59;7.97;;;6.97;;
53203;SDS011;39086;54.424;18.456;2023-06-26T00:39:02;11.03;;;7.20;;
53203;SDS011;39086;54.424;18.456;2023-06-26T00:40:08;10.47;;;7.30;;
53203;SDS011;39086;54.424;18.456;2023-06-26T00:41:11;13.70;;;7.37;;
53203;SDS011;39086;54.424;18.456;2023-06-26T00:42:14;12.47;;;6.93;;
53203;SDS011;39086;54.424;18.456;2023-06-26T00:43:17;10.40;;;6.93;;
53203;SDS011;39086;54.424;18.456;2023-06-26T00:44:20;10.23;;;7.40;;
53203;SDS011;39086;54.424;18.456;2023-06-26T00:45:22;8.73;;;7.17;;
53203;SDS011;39086;54.424;18.456;2023-06-26T00:46:42;9.20;;;7.13;;
53203;SDS011;39086;54.424;18.456;2023-06-26T00:47:45;10.73;;;7.73;;
53203;SDS011;39086;54.424;18.456;2023-06-26T00:48:48;10.83;;;7.43;;
53203;SDS011;39086;54.424;18.456;2023-06-26T00:49:51;11.87;;;7.20;;
53203;SDS011;39086;54.424;18.456;2023-06-26T00:50:54;9.07;;;6.47;;
53203;SDS011;39086;54.424;18.456;2023-06-26T00:51:57;8.53;;;7.00;;
53203;SDS011;39086;54.424;18.456;2023-06-26T00:53:00;13.40;;;7.57;;
53203;SDS011;39086;54.424;18.456;2023-06-26T00:54:03;9.37;;;6.73;;
53203;SDS011;39086;54.424;18.456;2023-06-26T00:55:08;11.97;;;6.93;;
53203;SDS011;39086;54.424;18.456;2023-06-26T00:56:11;11.27;;;7.27;;
53203;SDS011;39086;54.424;18.456;2023-06-26T00:57:14;10.67;;;7.17;;
53203;SDS011;39086;54.424;18.456;2023-06-26T00:58:17;8.90;;;6.87;;
53203;SDS011;39086;54.424;18.456;2023-06-26T00:59:20;9.07;;;7.00;;
53203;SDS011;39086;54.424;18.456;2023-06-26T01:00:22;9.60;;;7.33;;
53203;SDS011;39086;54.424;18.456;2023-06-26T01:01:26;13.67;;;7.50;;
53203;SDS011;39086;54.424;18.456;2023-06-26T01:02:28;9.03;;;6.47;;
53203;SDS011;39086;54.424;18.456;2023-06-26T01:03:35;11.63;;;7.17;;
53203;SDS011;39086;54.424;18.456;2023-06-26T01:04:41;12.20;;;7.70;;
53203;SDS011;39086;54.424;18.456;2023-06-26T01:05:47;10.87;;;6.77;;
53203;SDS011;39086;54.424;18.456;2023-06-26T01:06:50;11.13;;;6.90;;
53203;SDS011;39086;54.424;18.456;2023-06-26T01:07:54;9.03;;;7.03;;
53203;SDS011;39086;54.424;18.456;2023-06-26T01:08:57;15.70;;;6.87;;
53203;SDS011;39086;54.424;18.456;2023-06-26T01:10:01;13.07;;;7.77;;
53203;SDS011;39086;54.424;18.456;2023-06-26T01:11:04;11.77;;;6.97;;
53203;SDS011;39086;54.424;18.456;2023-06-26T01:12:08;10.83;;;6.43;;
53203;SDS011;39086;54.424;18.456;2023-06-26T01:13:11;10.13;;;6.80;;
53203;SDS011;39086;54.424;18.456;2023-06-26T01:14:14;9.73;;;7.33;;
53203;SDS011;39086;54.424;18.456;2023-06-26T01:15:17;9.73;;;7.03;;
53203;SDS011;39086;54.424;18.456;2023-06-26T01:16:20;10.20;;;7.43;;
53203;SDS011;39086;54.424;18.456;2023-06-26T01:17:23;11.50;;;7.63;;
53203;SDS011;39086;54.424;18.456;2023-06-26T01:18:27;8.80;;;6.63;;
53203;SDS011;39086;54.424;18.456;2023-06-26T01:19:30;10.03;;;6.70;;
53203;SDS011;39086;54.424;18.456;2023-06-26T01:20:35;12.23;;;7.30;;
53203;SDS011;39086;54.424;18.456;2023-06-26T01:21:40;7.93;;;6.60;;
53203;SDS011;39086;54.424;18.456;2023-06-26T01:22:47;10.17;;;7.83;;
53203;SDS011;39086;54.424;18.456;2023-06-26T01:23:58;9.90;;;6.50;;
53203;SDS011;39086;54.424;18.456;2023-06-26T01:25:10;9.47;;;6.80;;
53203;SDS011;39086;54.424;18.456;2023-06-26T01:26:20;10.43;;;7.20;;
53203;SDS011;39086;54.424;18.456;2023-06-26T01:27:24;9.83;;;7.10;;
53203;SDS011;39086;54.424;18.456;2023-06-26T01:28:27;12.80;;;6.77;;
53203;SDS011;39086;54.424;18.456;2023-06-26T01:29:31;11.53;;;6.80;;
53203;SDS011;39086;54.424;18.456;2023-06-26T01:30:34;9.10;;;6.10;;
53203;SDS011;39086;54.424;18.456;2023-06-26T01:31:40;7.57;;;6.70;;
53203;SDS011;39086;54.424;18.456;2023-06-26T01:32:43;10.00;;;6.73;;
53203;SDS011;39086;54.424;18.456;2023-06-26T01:33:46;11.53;;;6.57;;
53203;SDS011;39086;54.424;18.456;2023-06-26T01:34:49;10.80;;;6.47;;
53203;SDS011;39086;54.424;18.456;2023-06-26T01:35:53;11.83;;;6.83;;
53203;SDS011;39086;54.424;18.456;2023-06-26T01:36:55;8.70;;;6.10;;
53203;SDS011;39086;54.424;18.456;2023-06-26T01:38:11;7.73;;;6.20;;
53203;SDS011;39086;54.424;18.456;2023-06-26T01:39:14;12.33;;;7.50;;
53203;SDS011;39086;54.424;18.456;2023-06-26T01:40:18;10.67;;;6.40;;
53203;SDS011;39086;54.424;18.456;2023-06-26T01:41:22;8.60;;;6.93;;
53203;SDS011;39086;54.424;18.456;2023-06-26T01:42:25;8.77;;;6.47;;
53203;SDS011;39086;54.424;18.456;2023-06-26T01:43:31;12.33;;;7.17;;
53203;SDS011;39086;54.424;18.456;2023-06-26T01:44:35;10.10;;;6.77;;
53203;SDS011;39086;54.424;18.456;2023-06-26T01:45:38;9.73;;;7.30;;
53203;SDS011;39086;54.424;18.456;2023-06-26T01:46:43;8.60;;;6.53;;
53203;SDS011;39086;54.424;18.456;2023-06-26T01:47:49;11.13;;;6.30;;
53203;SDS011;39086;54.424;18.456;2023-06-26T01:48:55;10.03;;;7.37;;
53203;SDS011;39086;54.424;18.456;2023-06-26T01:50:02;12.33;;;6.40;;
53203;SDS011;39086;54.424;18.456;2023-06-26T01:51:08;11.63;;;6.53;;
53203;SDS011;39086;54.424;18.456;2023-06-26T01:52:12;12.30;;;6.90;;
53203;SDS011;39086;54.424;18.456;2023-06-26T01:53:18;10.13;;;6.83;;
53203;SDS011;39086;54.424;18.456;2023-06-26T01:54:21;11.90;;;7.70;;
53203;SDS011;39086;54.424;18.456;2023-06-26T01:55:28;13.63;;;6.23;;
53203;SDS011;39086;54.424;18.456;2023-06-26T01:56:36;12.57;;;6.97;;
53203;SDS011;39086;54.424;18.456;2023-06-26T01:57:40;11.30;;;7.10;;
53203;SDS011;39086;54.424;18.456;2023-06-26T01:58:45;8.23;;;6.40;;
53203;SDS011;39086;54.424;18.456;2023-06-26T01:59:50;11.60;;;6.53;;
53203;SDS011;39086;54.424;18.456;2023-06-26T02:00:53;11.37;;;7.10;;
53203;SDS011;39086;54.424;18.456;2023-06-26T02:01:56;9.57;;;6.30;;
53203;SDS011;39086;54.424;18.456;2023-06-26T02:02:58;10.87;;;7.10;;
53203;SDS011;39086;54.424;18.456;2023-06-26T02:04:02;9.07;;;6.83;;
53203;SDS011;39086;54.424;18.456;2023-06-26T02:05:05;8.57;;;6.20;;
53203;SDS011;39086;54.424;18.456;2023-06-26T02:06:08;9.47;;;6.57;;
53203;SDS011;39086;54.424;18.456;2023-06-26T02:07:10;10.97;;;6.87;;
53203;SDS011;39086;54.424;18.456;2023-06-26T02:08:14;8.90;;;7.17;;
53203;SDS011;39086;54.424;18.456;2023-06-26T02:09:16;8.67;;;6.50;;
53203;SDS011;39086;54.424;18.456;2023-06-26T02:10:21;8.53;;;6.50;;
53203;SDS011;39086;54.424;18.456;2023-06-26T02:11:23;9.83;;;6.13;;
53203;SDS011;39086;54.424;18.456;2023-06-26T02:12:28;8.07;;;6.40;;
53203;SDS011;39086;54.424;18.456;2023-06-26T02:13:31;10.63;;;6.73;;
53203;SDS011;39086;54.424;18.456;2023-06-26T02:14:33;7.17;;;5.93;;
53203;SDS011;39086;54.424;18.456;2023-06-26T02:15:37;8.37;;;6.63;;
53203;SDS011;39086;54.424;18.456;2023-06-26T02:16:39;9.57;;;7.50;;
53203;SDS011;39086;54.424;18.456;2023-06-26T02:17:43;8.60;;;6.70;;
53203;SDS011;39086;54.424;18.456;2023-06-26T02:18:49;13.13;;;6.97;;
53203;SDS011;39086;54.424;18.456;2023-06-26T02:19:52;10.40;;;6.77;;
53203;SDS011;39086;54.424;18.456;2023-06-26T02:20:55;9.37;;;7.10;;
53203;SDS011;39086;54.424;18.456;2023-06-26T02:21:58;11.70;;;7.20;;
53203;SDS011;39086;54.424;18.456;2023-06-26T02:23:01;9.43;;;6.57;;
53203;SDS011;39086;54.424;18.456;2023-06-26T02:24:04;9.60;;;6.87;;
53203;SDS011;39086;54.424;18.456;2023-06-26T02:25:07;8.77;;;7.40;;
53203;SDS011;39086;54.424;18.456;2023-06-26T02:26:11;11.00;;;7.70;;
53203;SDS011;39086;54.424;18.456;2023-06-26T02:27:13;9.57;;;6.43;;
53203;SDS011;39086;54.424;18.456;2023-06-26T02:28:18;11.33;;;6.63;;
53203;SDS011;39086;54.424;18.456;2023-06-26T02:29:20;10.53;;;6.90;;
53203;SDS011;39086;54.424;18.456;2023-06-26T02:30:23;10.83;;;7.03;;
53203;SDS011;39086;54.424;18.456;2023-06-26T02:31:27;9.10;;;6.47;;
53203;SDS011;39086;54.424;18.456;2023-06-26T02:32:29;8.60;;;6.87;;
53203;SDS011;39086;54.424;18.456;2023-06-26T02:33:32;7.67;;;6.43;;
53203;SDS011;39086;54.424;18.456;2023-06-26T02:34:35;13.97;;;7.40;;
53203;SDS011;39086;54.424;18.456;2023-06-26T02:35:38;8.00;;;6.43;;
53203;SDS011;39086;54.424;18.456;2023-06-26T02:36:40;7.67;;;6.70;;
53203;SDS011;39086;54.424;18.456;2023-06-26T02:37:44;11.87;;;7.43;;
53203;SDS011;39086;54.424;18.456;2023-06-26T02:38:47;11.83;;;7.37;;
53203;SDS011;39086;54.424;18.456;2023-06-26T02:39:50;11.03;;;6.63;;
53203;SDS011;39086;54.424;18.456;2023-06-26T02:40:53;11.47;;;7.43;;
53203;SDS011;39086;54.424;18.456;2023-06-26T02:41:55;8.77;;;6.50;;
53203;SDS011;39086;54.424;18.456;2023-06-26T02:42:59;7.73;;;6.27;;
53203;SDS011;39086;54.424;18.456;2023-06-26T02:44:02;9.17;;;6.77;;
53203;SDS011;39086;54.424;18.456;2023-06-26T02:45:06;8.93;;;6.53;;
53203;SDS011;39086;54.424;18.456;2023-06-26T02:46:09;8.53;;;6.70;;
53203;SDS011;39086;54.424;18.456;2023-06-26T02:47:12;9.80;;;6.57;;
53203;SDS011;39086;54.424;18.456;2023-06-26T02:48:16;10.17;;;6.73;;
53203;SDS011;39086;54.424;18.456;2023-06-26T02:49:18;8.03;;;6.37;;
53203;SDS011;39086;54.424;18.456;2023-06-26T02:50:24;8.93;;;6.87;;
53203;SDS011;39086;54.424;18.456;2023-06-26T02:51:26;8.97;;;7.40;;
53203;SDS011;39086;54.424;18.456;2023-06-26T02:52:29;9.53;;;6.67;;
53203;SDS011;39086;54.424;18.456;2023-06-26T02:53:32;9.83;;;6.57;;
53203;SDS011;39086;54.424;18.456;2023-06-26T02:54:35;11.73;;;6.10;;
53203;SDS011;39086;54.424;18.456;2023-06-26T02:55:37;10.13;;;6.57;;
53203;SDS011;39086;54.424;18.456;2023-06-26T02:56:41;10.17;;;7.00;;
53203;SDS011;39086;54.424;18.456;2023-06-26T02:57:48;10.23;;;7.10;;
53203;SDS011;39086;54.424;18.456;2023-06-26T02:58:50;8.43;;;6.97;;
53203;SDS011;39086;54.424;18.456;2023-06-26T02:59:55;11.27;;;7.67;;
53203;SDS011;39086;54.424;18.456;2023-06-26T03:00:58;8.37;;;6.77;;
53203;SDS011;39086;54.424;18.456;2023-06-26T03:02:01;11.07;;;6.80;;
53203;SDS011;39086;54.424;18.456;2023-06-26T03:03:04;7.30;;;6.60;;
53203;SDS011;39086;54.424;18.456;2023-06-26T03:04:07;11.57;;;7.20;;
53203;SDS011;39086;54.424;18.456;2023-06-26T03:05:10;11.40;;;7.07;;
53203;SDS011;39086;54.424;18.456;2023-06-26T03:06:14;11.40;;;6.87;;
53203;SDS011;39086;54.424;18.456;2023-06-26T03:07:18;11.90;;;7.07;;
53203;SDS011;39086;54.424;18.456;2023-06-26T03:08:20;9.00;;;6.80;;
53203;SDS011;39086;54.424;18.456;2023-06-26T03:09:24;10.60;;;6.70;;
53203;SDS011;39086;54.424;18.456;2023-06-26T03:10:26;10.70;;;6.87;;
53203;SDS011;39086;54.424;18.456;2023-06-26T03:11:29;13.67;;;7.20;;
53203;SDS011;39086;54.424;18.456;2023-06-26T03:12:33;11.33;;;6.90;;
53203;SDS011;39086;54.424;18.456;2023-06-26T03:13:36;8.97;;;6.50;;
53203;SDS011;39086;54.424;18.456;2023-06-26T03:14:39;9.97;;;7.27;;
53203;SDS011;39086;54.424;18.456;2023-06-26T03:15:43;12.07;;;6.70;;
53203;SDS011;39086;54.424;18.456;2023-06-26T03:16:46;11.60;;;7.30;;
53203;SDS011;39086;54.424;18.456;2023-06-26T03:17:49;11.17;;;7.00;;
53203;SDS011;39086;54.424;18.456;2023-06-26T03:18:52;11.10;;;6.80;;
53203;SDS011;39086;54.424;18.456;2023-06-26T03:19:54;8.63;;;6.83;;
53203;SDS011;39086;54.424;18.456;2023-06-26T03:20:58;11.77;;;7.13;;
53203;SDS011;39086;54.424;18.456;2023-06-26T03:22:01;8.10;;;6.37;;
53203;SDS011;39086;54.424;18.456;2023-06-26T03:23:05;13.10;;;7.03;;
53203;SDS011;39086;54.424;18.456;2023-06-26T03:24:07;7.63;;;6.50;;
53203;SDS011;39086;54.424;18.456;2023-06-26T03:25:10;8.60;;;6.47;;
53203;SDS011;39086;54.424;18.456;2023-06-26T03:26:13;14.07;;;7.17;;
53203;SDS011;39086;54.424;18.456;2023-06-26T03:27:16;10.97;;;6.40;;
53203;SDS011;39086;54.424;18.456;2023-06-26T03:28:19;11.50;;;7.20;;
53203;SDS011;39086;54.424;18.456;2023-06-26T03:29:23;13.17;;;7.00;;
53203;SDS011;39086;54.424;18.456;2023-06-26T03:30:25;9.80;;;6.93;;
53203;SDS011;39086;54.424;18.456;2023-06-26T03:31:30;7.43;;;6.60;;
53203;SDS011;39086;54.424;18.456;2023-06-26T03:32:32;10.20;;;7.07;;
53203;SDS011;39086;54.424;18.456;2023-06-26T03:33:37;11.40;;;7.20;;
53203;SDS011;39086;54.424;18.456;2023-06-26T03:34:39;10.67;;;6.97;;
53203;SDS011;39086;54.424;18.456;2023-06-26T03:35:42;10.57;;;6.50;;
53203;SDS011;39086;54.424;18.456;2023-06-26T03:36:45;9.43;;;6.60;;
53203;SDS011;39086;54.424;18.456;2023-06-26T03:37:48;8.73;;;6.67;;
53203;SDS011;39086;54.424;18.456;2023-06-26T03:38:51;9.20;;;7.10;;
53203;SDS011;39086;54.424;18.456;2023-06-26T03:39:58;9.50;;;7.00;;
53203;SDS011;39086;54.424;18.456;2023-06-26T03:41:00;9.87;;;6.93;;
53203;SDS011;39086;54.424;18.456;2023-06-26T03:42:04;9.70;;;7.10;;
53203;SDS011;39086;54.424;18.456;2023-06-26T03:43:06;8.00;;;6.80;;
53203;SDS011;39086;54.424;18.456;2023-06-26T03:44:09;10.20;;;6.97;;
53203;SDS011;39086;54.424;18.456;2023-06-26T03:45:12;7.30;;;6.53;;
53203;SDS011;39086;54.424;18.456;2023-06-26T03:46:15;8.03;;;7.10;;
53203;SDS011;39086;54.424;18.456;2023-06-26T03:47:19;8.67;;;6.93;;
53203;SDS011;39086;54.424;18.456;2023-06-26T03:48:22;10.70;;;6.80;;
53203;SDS011;39086;54.424;18.456;2023-06-26T03:49:25;8.80;;;6.83;;
53203;SDS011;39086;54.424;18.456;2023-06-26T03:50:28;9.30;;;6.63;;
53203;SDS011;39086;54.424;18.456;2023-06-26T03:51:30;9.10;;;7.07;;
53203;SDS011;39086;54.424;18.456;2023-06-26T03:52:34;9.00;;;7.03;;
53203;SDS011;39086;54.424;18.456;2023-06-26T03:53:36;12.87;;;6.83;;
53203;SDS011;39086;54.424;18.456;2023-06-26T03:54:43;12.83;;;7.33;;
53203;SDS011;39086;54.424;18.456;2023-06-26T03:55:45;13.43;;;7.23;;
53203;SDS011;39086;54.424;18.456;2023-06-26T03:56:48;16.47;;;7.70;;
53203;SDS011;39086;54.424;18.456;2023-06-26T03:57:51;16.57;;;7.57;;
53203;SDS011;39086;54.424;18.456;2023-06-26T03:58:54;14.13;;;6.63;;
53203;SDS011;39086;54.424;18.456;2023-06-26T03:59:56;8.47;;;6.53;;
53203;SDS011;39086;54.424;18.456;2023-06-26T04:01:00;8.53;;;6.20;;
53203;SDS011;39086;54.424;18.456;2023-06-26T04:02:02;10.90;;;6.67;;
53203;SDS011;39086;54.424;18.456;2023-06-26T04:03:07;8.83;;;6.47;;
53203;SDS011;39086;54.424;18.456;2023-06-26T04:04:10;13.63;;;6.67;;
53203;SDS011;39086;54.424;18.456;2023-06-26T04:05:13;14.63;;;7.10;;
53203;SDS011;39086;54.424;18.456;2023-06-26T04:06:16;7.87;;;6.27;;
53203;SDS011;39086;54.424;18.456;2023-06-26T04:07:19;7.13;;;6.40;;
53203;SDS011;39086;54.424;18.456;2023-06-26T04:08:23;10.30;;;6.63;;
53203;SDS011;39086;54.424;18.456;2023-06-26T04:09:28;10.70;;;6.23;;
53203;SDS011;39086;54.424;18.456;2023-06-26T04:10:30;10.10;;;6.87;;
53203;SDS011;39086;54.424;18.456;2023-06-26T04:11:33;15.43;;;7.30;;
53203;SDS011;39086;54.424;18.456;2023-06-26T04:12:36;15.60;;;7.10;;
53203;SDS011;39086;54.424;18.456;2023-06-26T04:13:39;13.40;;;6.93;;
53203;SDS011;39086;54.424;18.456;2023-06-26T04:14:41;9.23;;;6.70;;
53203;SDS011;39086;54.424;18.456;2023-06-26T04:15:45;7.43;;;6.53;;
53203;SDS011;39086;54.424;18.456;2023-06-26T04:16:47;10.67;;;6.90;;
53203;SDS011;39086;54.424;18.456;2023-06-26T04:17:51;7.50;;;6.70;;
53203;SDS011;39086;54.424;18.456;2023-06-26T04:18:54;8.90;;;6.87;;
53203;SDS011;39086;54.424;18.456;2023-06-26T04:19:58;10.80;;;6.33;;
53203;SDS011;39086;54.424;18.456;2023-06-26T04:21:04;14.10;;;6.80;;
53203;SDS011;39086;54.424;18.456;2023-06-26T04:22:08;13.33;;;6.93;;
53203;SDS011;39086;54.424;18.456;2023-06-26T04:23:10;12.47;;;7.03;;
53203;SDS011;39086;54.424;18.456;2023-06-26T04:24:13;9.47;;;6.67;;
53203;SDS011;39086;54.424;18.456;2023-06-26T04:25:17;10.90;;;7.03;;
53203;SDS011;39086;54.424;18.456;2023-06-26T04:26:19;10.13;;;6.40;;
53203;SDS011;39086;54.424;18.456;2023-06-26T04:27:23;11.23;;;7.07;;
53203;SDS011;39086;54.424;18.456;2023-06-26T04:28:25;10.53;;;6.97;;
53203;SDS011;39086;54.424;18.456;2023-06-26T04:29:28;9.67;;;7.07;;
53203;SDS011;39086;54.424;18.456;2023-06-26T04:30:31;8.83;;;6.30;;
53203;SDS011;39086;54.424;18.456;2023-06-26T04:31:34;8.80;;;5.90;;
53203;SDS011;39086;54.424;18.456;2023-06-26T04:32:37;9.23;;;5.83;;
53203;SDS011;39086;54.424;18.456;2023-06-26T04:33:40;7.13;;;6.10;;
53203;SDS011;39086;54.424;18.456;2023-06-26T04:34:45;9.57;;;6.60;;
53203;SDS011;39086;54.424;18.456;2023-06-26T04:35:49;8.03;;;5.70;;
53203;SDS011;39086;54.424;18.456;2023-06-26T04:36:51;8.07;;;5.90;;
53203;SDS011;39086;54.424;18.456;2023-06-26T04:37:55;11.60;;;6.47;;
53203;SDS011;39086;54.424;18.456;2023-06-26T04:38:57;8.23;;;6.13;;
53203;SDS011;39086;54.424;18.456;2023-06-26T04:40:01;12.57;;;7.07;;
53203;SDS011;39086;54.424;18.456;2023-06-26T04:41:05;16.47;;;6.37;;
53203;SDS011;39086;54.424;18.456;2023-06-26T04:42:08;8.67;;;5.97;;
53203;SDS011;39086;54.424;18.456;2023-06-26T04:43:14;6.90;;;6.03;;
53203;SDS011;39086;54.424;18.456;2023-06-26T04:44:18;10.23;;;6.33;;
53203;SDS011;39086;54.424;18.456;2023-06-26T04:45:20;8.43;;;5.83;;
53203;SDS011;39086;54.424;18.456;2023-06-26T04:46:23;7.07;;;5.80;;
53203;SDS011;39086;54.424;18.456;2023-06-26T04:47:26;7.40;;;5.80;;
53203;SDS011;39086;54.424;18.456;2023-06-26T04:48:29;10.90;;;6.30;;
53203;SDS011;39086;54.424;18.456;2023-06-26T04:49:32;6.73;;;5.30;;
53203;SDS011;39086;54.424;18.456;2023-06-26T04:50:40;9.13;;;5.50;;
53203;SDS011;39086;54.424;18.456;2023-06-26T04:51:43;6.47;;;5.23;;
53203;SDS011;39086;54.424;18.456;2023-06-26T04:52:46;6.63;;;5.63;;
53203;SDS011;39086;54.424;18.456;2023-06-26T04:53:49;5.60;;;4.87;;
53203;SDS011;39086;54.424;18.456;2023-06-26T04:54:52;11.40;;;5.47;;
53203;SDS011;39086;54.424;18.456;2023-06-26T04:55:55;8.40;;;5.27;;
53203;SDS011;39086;54.424;18.456;2023-06-26T04:56:59;6.83;;;4.80;;
53203;SDS011;39086;54.424;18.456;2023-06-26T04:58:01;6.70;;;4.63;;
53203;SDS011;39086;54.424;18.456;2023-06-26T04:59:04;8.33;;;5.07;;
53203;SDS011;39086;54.424;18.456;2023-06-26T05:00:07;7.83;;;5.20;;
53203;SDS011;39086;54.424;18.456;2023-06-26T05:01:12;7.07;;;4.90;;
53203;SDS011;39086;54.424;18.456;2023-06-26T05:02:16;7.27;;;4.77;;
53203;SDS011;39086;54.424;18.456;2023-06-26T05:03:18;8.03;;;5.20;;
53203;SDS011;39086;54.424;18.456;2023-06-26T05:04:22;7.43;;;4.87;;
53203;SDS011;39086;54.424;18.456;2023-06-26T05:05:26;6.43;;;4.53;;
53203;SDS011;39086;54.424;18.456;2023-06-26T05:06:30;5.47;;;4.60;;
53203;SDS011;39086;54.424;18.456;2023-06-26T05:07:33;7.87;;;4.70;;
53203;SDS011;39086;54.424;18.456;2023-06-26T05:08:36;4.73;;;4.33;;
53203;SDS011;39086;54.424;18.456;2023-06-26T05:09:39;6.10;;;4.77;;
53203;SDS011;39086;54.424;18.456;2023-06-26T05:10:41;7.97;;;4.53;;
53203;SDS011;39086;54.424;18.456;2023-06-26T05:11:45;4.57;;;4.03;;
53203;SDS011;39086;54.424;18.456;2023-06-26T05:12:48;8.03;;;4.90;;
53203;SDS011;39086;54.424;18.456;2023-06-26T05:13:51;6.07;;;4.83;;
53203;SDS011;39086;54.424;18.456;2023-06-26T05:14:54;6.97;;;4.40;;
53203;SDS011;39086;54.424;18.456;2023-06-26T05:15:56;6.00;;;4.97;;
53203;SDS011;39086;54.424;18.456;2023-06-26T05:17:00;8.17;;;4.40;;
53203;SDS011;39086;54.424;18.456;2023-06-26T05:18:03;4.53;;;3.83;;
53203;SDS011;39086;54.424;18.456;2023-06-26T05:19:06;6.03;;;3.97;;
53203;SDS011;39086;54.424;18.456;2023-06-26T05:20:10;5.07;;;4.07;;
53203;SDS011;39086;54.424;18.456;2023-06-26T05:21:12;10.50;;;4.37;;
53203;SDS011;39086;54.424;18.456;2023-06-26T05:22:17;11.20;;;4.03;;
53203;SDS011;39086;54.424;18.456;2023-06-26T05:23:20;7.97;;;3.33;;
53203;SDS011;39086;54.424;18.456;2023-06-26T05:24:23;10.10;;;3.50;;
53203;SDS011;39086;54.424;18.456;2023-06-26T05:25:26;5.80;;;3.20;;
53203;SDS011;39086;54.424;18.456;2023-06-26T05:26:30;6.37;;;3.50;;
53203;SDS011;39086;54.424;18.456;2023-06-26T05:27:34;4.30;;;2.93;;
53203;SDS011;39086;54.424;18.456;2023-06-26T05:28:36;3.90;;;2.60;;
53203;SDS011;39086;54.424;18.456;2023-06-26T05:29:40;3.20;;;2.90;;
53203;SDS011;39086;54.424;18.456;2023-06-26T05:30:44;4.73;;;3.47;;
53203;SDS011;39086;54.424;18.456;2023-06-26T05:31:47;3.17;;;2.80;;
53203;SDS011;39086;54.424;18.456;2023-06-26T05:32:52;4.17;;;3.07;;
53203;SDS011;39086;54.424;18.456;2023-06-26T05:33:55;5.97;;;3.27;;
53203;SDS011;39086;54.424;18.456;2023-06-26T05:34:59;3.50;;;3.20;;
53203;SDS011;39086;54.424;18.456;2023-06-26T05:36:04;5.20;;;3.23;;
53203;SDS011;39086;54.424;18.456;2023-06-26T05:37:08;5.80;;;2.80;;
53203;SDS011;39086;54.424;18.456;2023-06-26T05:38:13;6.43;;;3.17;;
53203;SDS011;39086;54.424;18.456;2023-06-26T05:39:16;5.00;;;3.40;;
53203;SDS011;39086;54.424;18.456;2023-06-26T05:40:19;3.50;;;2.77;;
53203;SDS011;39086;54.424;18.456;2023-06-26T05:41:23;3.63;;;2.93;;
53203;SDS011;39086;54.424;18.456;2023-06-26T05:42:26;3.60;;;3.10;;
53203;SDS011;39086;54.424;18.456;2023-06-26T05:43:30;7.50;;;3.20;;
53203;SDS011;39086;54.424;18.456;2023-06-26T05:44:33;3.10;;;2.57;;
53203;SDS011;39086;54.424;18.456;2023-06-26T05:45:36;3.27;;;2.63;;
53203;SDS011;39086;54.424;18.456;2023-06-26T05:46:39;4.97;;;2.67;;
53203;SDS011;39086;54.424;18.456;2023-06-26T05:47:42;6.00;;;2.70;;
53203;SDS011;39086;54.424;18.456;2023-06-26T05:48:45;3.93;;;2.50;;
53203;SDS011;39086;54.424;18.456;2023-06-26T05:49:48;4.40;;;2.97;;
53203;SDS011;39086;54.424;18.456;2023-06-26T05:50:51;2.33;;;2.23;;
53203;SDS011;39086;54.424;18.456;2023-06-26T05:51:55;2.70;;;2.50;;
53203;SDS011;39086;54.424;18.456;2023-06-26T05:52:57;4.13;;;2.50;;
53203;SDS011;39086;54.424;18.456;2023-06-26T05:54:04;3.40;;;2.60;;
53203;SDS011;39086;54.424;18.456;2023-06-26T05:55:07;5.93;;;2.60;;
53203;SDS011;39086;54.424;18.456;2023-06-26T05:56:10;4.33;;;3.00;;
53203;SDS011;39086;54.424;18.456;2023-06-26T05:57:14;5.07;;;2.67;;
53203;SDS011;39086;54.424;18.456;2023-06-26T05:58:17;9.37;;;3.10;;
53203;SDS011;39086;54.424;18.456;2023-06-26T05:59:21;4.60;;;2.70;;
53203;SDS011;39086;54.424;18.456;2023-06-26T06:00:24;7.07;;;2.80;;
53203;SDS011;39086;54.424;18.456;2023-06-26T06:01:28;4.83;;;2.53;;
53203;SDS011;39086;54.424;18.456;2023-06-26T06:02:31;2.73;;;2.53;;
53203;SDS011;39086;54.424;18.456;2023-06-26T06:03:34;3.67;;;3.40;;
53203;SDS011;39086;54.424;18.456;2023-06-26T06:04:37;3.20;;;2.73;;
53203;SDS011;39086;54.424;18.456;2023-06-26T06:05:40;4.23;;;2.40;;
53203;SDS011;39086;54.424;18.456;2023-06-26T06:06:43;2.90;;;2.70;;
53203;SDS011;39086;54.424;18.456;2023-06-26T06:07:46;5.30;;;2.70;;
53203;SDS011;39086;54.424;18.456;2023-06-26T06:08:49;2.60;;;2.40;;
53203;SDS011;39086;54.424;18.456;2023-06-26T06:09:54;3.13;;;2.63;;
53203;SDS011;39086;54.424;18.456;2023-06-26T06:10:57;3.07;;;2.77;;
53203;SDS011;39086;54.424;18.456;2023-06-26T06:12:00;4.40;;;2.57;;
53203;SDS011;39086;54.424;18.456;2023-06-26T06:13:02;2.80;;;2.60;;
53203;SDS011;39086;54.424;18.456;2023-06-26T06:14:06;4.07;;;3.00;;